Latest Coastal Weather Observations for Marion Reef

IDQ60701

Issued at 1:05 am EST Friday 24 October 2014 (issued every 10 minutes, with the page automatically refreshed every 10 minutes)

About coastal observations | Map of coastal stations | Coastal observations for QLD | Marine services | Other Formats
Station Details ID: 200704 Name: MARION REEF Lat: -19.10 Lon: 152.39 Height: 2.0 m
Data from the previous 72 hours. | See also: Recent months for locations in Queensland
Date/Time
EST
Temp

°C
Wind Pressure Rain
since 9am
mm
Weather Cloud Vis
km
Sea
Height
m
Swell
Dir
 
Speed
knots
Gust
knots
hPa Trend Height
m
Period
s
Dir
24/01:00am 23.1 SE 17 21 1017.3 - - - - - - - - -
24/12:30am 23.0 SE 17 19 1017.7 - - - - - - - - -
24/12:00am 23.4 SE 17 21 1018.0 - - - - - - - - -
 
Date/Time
EST
Temp

°C
Wind Pressure Rain
since 9am
mm
Weather Cloud Vis
km
Sea
Height
m
Swell
Dir
 
Speed
knots
Gust
knots
hPa Trend Height
m
Period
s
Dir
23/11:30pm 23.2 ESE 17 21 1018.4 - - - - - - - - -
23/11:00pm 23.5 SE 18 22 1018.7 - - - - - - - - -
23/10:30pm 23.5 ESE 19 24 1019.1 - - - - - - - - -
23/10:00pm 23.3 ESE 19 21 1019.1 - - - - - - - - -
23/09:30pm 23.7 ESE 19 23 1019.2 - - - - - - - - -
23/09:00pm 23.5 ESE 19 23 1018.8 - - - - - - - - -
23/08:30pm 23.3 ESE 19 22 1018.5 - - - - - - - - -
23/08:00pm 23.5 ESE 19 22 1018.1 - - - - - - - - -
23/07:30pm 23.8 SE 18 21 1017.7 - - - - - - - - -
23/07:00pm 23.6 ESE 18 21 1017.4 - - - - - - - - -
23/06:30pm 23.3 SE 19 23 1017.4 - - - - - - - - -
23/06:00pm 23.3 ESE 20 23 1016.9 - - - - - - - - -
23/05:30pm 23.4 SE 20 22 1016.7 - - - - - - - - -
23/05:00pm 23.5 ESE 19 23 1016.4 - - - - - - - - -
23/04:30pm 23.5 SE 20 23 1016.2 - - - - - - - - -
23/04:00pm 23.5 SE 20 23 1015.7 - - - - - - - - -
23/03:30pm 23.4 SE 19 21 1015.7 - - - - - - - - -
23/03:00pm 23.3 SE 19 23 1015.4 - - - - - - - - -
23/02:30pm 23.4 SE 19 23 1015.6 - - - - - - - - -
23/02:00pm 23.3 SE 19 23 1015.6 - - - - - - - - -
23/01:30pm 23.3 SE 18 21 1015.9 - - - - - - - - -
23/01:00pm 23.3 SE 18 21 1016.1 - - - - - - - - -
23/12:30pm 23.4 ESE 18 23 1016.6 - - - - - - - - -
23/12:00pm 23.1 SE 18 22 1016.7 - - - - - - - - -
23/11:30am 23.5 SE 17 20 1017.3 - - - - - - - - -
23/11:00am 23.3 ESE 16 - 1017.5 - - - - - - - - -
23/10:30am 23.4 ESE 18 21 1017.9 - - - - - - - - -
23/10:00am 23.3 SE 16 19 1018.0 - - - - - - - - -
23/09:30am 23.5 SE 14 18 1018.2 - - - - - - - - -
23/09:00am 23.3 SE 15 19 1018.2 - - - - - - - - -
23/08:30am 23.2 SE 14 17 1018.3 - - - - - - - - -
23/08:00am 23.0 SE 15 17 1018.1 - - - - - - - - -
23/07:30am 23.0 ESE 15 18 1018.0 - - - - - - - - -
23/07:00am 22.9 ESE 15 17 1017.7 - - - - - - - - -
23/06:30am 22.9 ESE 16 19 1017.5 - - - - - - - - -
23/06:00am 22.8 ESE 16 19 1017.0 - - - - - - - - -
23/05:30am 22.5 ESE 16 21 1016.9 - - - - - - - - -
23/05:00am 22.6 ESE 15 19 1016.7 - - - - - - - - -
23/04:30am 22.6 SE 15 18 1016.6 - - - - - - - - -
23/04:00am 22.6 ESE 15 19 1016.3 - - - - - - - - -
23/03:30am 22.5 ESE 15 18 1016.3 - - - - - - - - -
23/03:00am 22.5 ESE 14 18 1016.1 - - - - - - - - -
23/02:30am 22.6 ESE 15 19 1016.3 - - - - - - - - -
23/02:00am 22.6 SE 16 19 1016.5 - - - - - - - - -
23/01:30am 22.7 SE 16 19 1016.8 - - - - - - - - -
23/01:00am 22.7 ESE 17 20 1017.1 - - - - - - - - -
23/12:30am 22.7 ESE 16 19 1017.6 - - - - - - - - -
23/12:00am 22.6 ESE 18 22 1018.0 - - - - - - - - -
 
Date/Time
EST
Temp

°C
Wind Pressure Rain
since 9am
mm
Weather Cloud Vis
km
Sea
Height
m
Swell
Dir
 
Speed
knots
Gust
knots
hPa Trend Height
m
Period
s
Dir
22/11:30pm 22.9 ESE 18 22 1018.5 - - - - - - - - -
22/11:00pm 22.9 ESE 18 21 1018.9 - - - - - - - - -
22/10:30pm 23.2 SE 19 23 1019.3 - - - - - - - - -
22/10:00pm 23.2 SE 20 23 1019.2 - - - - - - - - -
22/09:30pm 23.1 ESE 20 23 1019.1 - - - - - - - - -
22/09:00pm 23.4 ESE 21 25 1018.8 - - - - - - - - -
22/08:30pm 23.2 SE 21 24 1018.7 - - - - - - - - -
22/08:00pm 23.2 SE 20 23 1018.4 - - - - - - - - -
22/07:30pm 23.2 SE 21 24 1018.1 - - - - - - - - -
22/07:00pm 23.2 SE 22 25 1017.7 - - - - - - - - -
22/06:30pm 23.3 SE 21 25 1017.6 - - - - - - - - -
22/06:00pm 23.3 SE 21 25 1017.2 - - - - - - - - -
22/05:30pm 23.4 SE 21 25 1017.1 - - - - - - - - -
22/05:00pm 23.3 SE 20 23 1016.8 - - - - - - - - -
22/04:30pm 23.3 SE 21 24 1016.7 - - - - - - - - -
22/04:00pm 23.3 SE 19 25 1016.4 - - - - - - - - -
22/03:30pm 23.3 SE 20 24 1016.4 - - - - - - - - -
22/03:00pm 23.3 SE 18 21 1016.5 - - - - - - - - -
22/02:30pm 23.3 SSE 21 25 1016.8 - - - - - - - - -
22/02:00pm 23.3 SE 18 21 1017.0 - - - - - - - - -
22/01:30pm 23.5 SE 17 21 1017.4 - - - - - - - - -
22/01:00pm 23.3 SE 18 21 1017.6 - - - - - - - - -
22/12:30pm 23.5 SE 18 21 1018.0 - - - - - - - - -
22/12:00pm 23.4 SE 18 22 1018.2 - - - - - - - - -
22/11:30am 23.5 SE 19 22 1018.8 - - - - - - - - -
22/11:00am 23.4 SE 21 25 1018.8 - - - - - - - - -
22/10:30am 23.2 SE 19 23 1019.0 - - - - - - - - -
22/10:00am 23.3 SE 19 23 1019.0 - - - - - - - - -
22/09:30am 23.3 SE 19 22 1019.2 - - - - - - - - -
22/09:00am 23.3 ESE 19 22 1019.2 - - - - - - - - -
22/08:30am 23.2 SE 21 25 1019.3 - - - - - - - - -
22/08:00am 23.2 SE 21 25 1019.2 - - - - - - - - -
22/07:30am 23.0 ESE 21 26 1018.8 - - - - - - - - -
22/07:00am 23.2 SE 23 29 1018.6 - - - - - - - - -
22/06:30am 22.8 SE 24 28 1018.2 - - - - - - - - -
22/06:00am 23.0 SE 24 29 1017.9 - - - - - - - - -
22/05:30am 23.0 SE 23 27 1017.8 - - - - - - - - -
22/05:00am 22.9 SE 23 28 1017.5 - - - - - - - - -
22/04:30am 22.8 SE 24 28 1017.4 - - - - - - - - -
22/04:00am 22.9 SE 24 28 1017.4 - - - - - - - - -
22/03:30am 22.9 SE 26 30 1017.5 - - - - - - - - -
22/03:04am 22.5 SE 16 26 1017.7 - - - - - - - - -
22/03:00am 22.5 SE 16 21 1017.6 - - - - - - - - -
22/02:30am 22.9 ESE 19 26 1018.1 - - - - - - - - -
22/02:00am 23.3 ESE 18 22 1018.1 - - - - - - - - -
22/01:30am 23.3 ESE 19 22 1018.6 - - - - - - - - -
22/01:00am 23.4 ESE 19 21 1018.9 - - - - - - - - -
22/12:30am 23.3 ESE 20 24 1019.8 - - - - - - - - -
22/12:00am 23.2 ESE 20 24 1019.9 - - - - - - - - -
 
Date/Time
EST
Temp

°C
Wind Pressure Rain
since 9am
mm
Weather Cloud Vis
km
Sea
Height
m
Swell
Dir
 
Speed
knots
Gust
knots
hPa Trend Height
m
Period
s
Dir
21/11:30pm 23.3 SE 20 23 1020.4 - - - - - - - - -
21/11:00pm 23.4 ESE 20 24 1020.6 - - - - - - - - -
21/10:30pm 23.4 SE 22 25 1020.5 - - - - - - - - -
21/10:00pm 23.5 ESE 23 28 1020.4 - - - - - - - - -
21/09:30pm 23.3 ESE 25 29 1020.4 - - - - - - - - -
21/09:00pm 23.2 ESE 24 29 1020.1 - - - - - - - - -
21/08:30pm 23.4 ESE 24 29 1020.0 - - - - - - - - -
21/08:00pm 23.5 ESE 25 28 1019.7 - - - - - - - - -
21/07:30pm 23.5 ESE 24 28 1019.5 - - - - - - - - -
21/07:00pm 23.7 SE 23 27 1019.4 - - - - - - - - -
21/06:30pm 23.4 SE 23 28 1019.2 - - - - - - - - -
21/06:00pm 23.7 SE 23 26 1019.0 - - - - - - - - -
21/05:30pm 23.6 SE 23 28 1018.7 - - - - - - - - -
21/05:00pm 23.5 SE 22 27 1018.4 - - - - - - - - -
21/04:30pm 23.7 SE 22 25 1018.3 - - - - - - - - -
21/04:00pm 23.5 SE 22 25 1018.1 - - - - - - - - -
21/03:30pm 23.5 SE 22 25 1018.1 - - - - - - - - -
21/03:00pm 23.6 SE 22 27 1018.1 - - - - - - - - -
21/02:30pm 23.4 SE 24 27 1018.1 - - - - - - - - -
21/02:00pm 23.6 SE 24 28 1018.0 - - - - - - - - -
21/01:30pm 23.5 SE 24 28 1018.2 - - - - - - - - -
21/01:00pm 23.3 SE 25 29 1018.3 - - - - - - - - -
21/12:30pm 23.5 SE 25 30 1018.8 - - - - - - - - -
21/12:00pm 23.6 SE 25 29 1019.0 - - - - - - - - -
21/11:30am 23.6 SE 24 28 1019.5 - - - - - - - - -
21/11:00am 23.6 SE 25 30 1019.7 - - - - - - - - -
21/10:30am 23.7 SE 25 28 1020.1 - - - - - - - - -
21/10:00am 23.5 SE 24 29 1019.9 - - - - - - - - -
21/09:30am 23.7 SE 23 27 1020.1 - - - - - - - - -
21/09:00am 23.7 SE 25 29 1020.1 - - - - - - - - -
21/08:30am 23.5 SE 25 29 1019.9 - - - - - - - - -
21/08:00am 23.3 SE 24 28 1019.5 - - - - - - - - -
21/07:30am 23.6 ESE 24 28 1019.5 - - - - - - - - -
21/07:00am 23.5 SE 23 27 1019.1 - - - - - - - - -
21/06:30am 23.2 ESE 22 27 1018.8 - - - - - - - - -
21/06:00am 23.2 SE 23 25 1018.4 - - - - - - - - -
21/05:30am 23.4 SE 22 26 1018.0 - - - - - - - - -
21/05:00am 23.2 SE 21 25 1017.8 - - - - - - - - -
21/04:30am 23.3 SE 21 25 1017.8 - - - - - - - - -
21/04:00am 23.3 SE 21 24 1017.5 - - - - - - - - -
21/03:30am 23.2 SE 23 26 1017.4 - - - - - - - - -
21/03:00am 23.0 SE 23 25 1017.4 - - - - - - - - -
21/02:30am 23.0 SE 23 26 1017.7 - - - - - - - - -
21/02:00am 23.1 SE 22 25 1017.8 - - - - - - - - -
21/01:30am 23.2 SE 22 27 1018.2 - - - - - - - - -

Other Formats:

Comma delimited format used in spreadsheet applications
http://www.bom.gov.au/fwo/IDQ60701/IDQ60701.94298.axf

JavaScript Object Notation format (JSON) in row-major order
http://www.bom.gov.au/fwo/IDQ60701/IDQ60701.94298.json